Time;durP1;ratioP1;P1;durP2;ratioP2;P2;SDS_P1;SDS_P2;PMS_P1;PMS_P2;Temp;Humidity;BMP_temperature;BMP_pressure;BME280_temperature;BME280_humidity;BME280_pressure;Samples;Min_cycle;Max_cycle;Signal;HPM_P1;HPM_P2
2023/03/20 00:00:17;;;;;;;25.70;21.08;;;12.30;99.90;;;;;;2075691;28;20052;-71
2023/03/20 00:01:20;;;;;;;23.60;20.38;;;12.20;99.90;;;;;;2074906;28;20111;-71
2023/03/20 00:02:23;;;;;;;25.00;21.70;;;12.20;99.90;;;;;;2074459;28;20105;-71
2023/03/20 00:03:23;;;;;;;25.92;21.45;;;12.30;99.90;;;;;;2074469;28;20017;-71
2023/03/20 00:04:24;;;;;;;24.55;18.80;;;12.20;99.90;;;;;;2078729;28;20036;-72
2023/03/20 00:05:27;;;;;;;25.42;21.50;;;12.20;99.90;;;;;;2080743;28;20023;-71
2023/03/20 00:06:27;;;;;;;25.25;21.40;;;12.30;99.90;;;;;;2077606;28;20036;-71
2023/03/20 00:07:28;;;;;;;27.70;22.90;;;12.30;99.90;;;;;;2080087;28;20028;-72
2023/03/20 00:08:30;;;;;;;27.63;23.63;;;12.20;99.90;;;;;;2075417;28;20068;-71
2023/03/20 00:09:31;;;;;;;27.67;22.85;;;12.20;99.90;;;;;;2076015;28;20017;-71
2023/03/20 00:10:38;;;;;;;28.17;22.88;;;12.10;99.90;;;;;;2075891;28;20627;-71
2023/03/20 00:11:52;;;;;;;25.48;21.67;;;12.20;99.90;;;;;;2078802;28;20052;-71
2023/03/20 00:12:53;;;;;;;28.48;22.95;;;12.10;99.90;;;;;;2072033;28;20750;-72
2023/03/20 00:13:56;;;;;;;27.30;23.50;;;12.10;99.90;;;;;;2069655;28;20540;-71
2023/03/20 00:15:16;;;;;;;28.38;23.65;;;12.10;99.90;;;;;;2076100;28;20042;-71
2023/03/20 00:16:17;;;;;;;28.83;23.95;;;12.10;99.90;;;;;;2075778;28;20029;-72
2023/03/20 00:17:19;;;;;;;33.53;23.80;;;12.00;99.90;;;;;;2075432;28;20037;-71
2023/03/20 00:18:22;;;;;;;27.83;21.70;;;12.00;99.90;;;;;;2075469;28;20108;-71
2023/03/20 00:19:24;;;;;;;26.33;22.55;;;12.00;99.90;;;;;;2073089;28;20749;-71
2023/03/20 00:20:25;;;;;;;24.48;21.85;;;12.00;99.90;;;;;;2074062;28;20022;-71
2023/03/20 00:21:26;;;;;;;30.73;24.63;;;12.00;99.90;;;;;;2073280;28;20026;-71
2023/03/20 00:22:28;;;;;;;33.50;25.02;;;12.00;99.90;;;;;;2075586;28;20026;-72
2023/03/20 00:23:28;;;;;;;31.77;26.63;;;12.00;99.90;;;;;;2083771;28;20029;-71
2023/03/20 00:24:29;;;;;;;33.17;26.17;;;12.00;99.90;;;;;;2080338;28;20025;-72
2023/03/20 00:25:31;;;;;;;32.67;27.55;;;12.00;99.90;;;;;;2074165;28;20473;-72
2023/03/20 00:26:34;;;;;;;31.27;26.50;;;12.00;99.90;;;;;;2074152;28;20013;-71
2023/03/20 00:27:34;;;;;;;34.78;27.75;;;12.00;99.90;;;;;;2073693;28;20791;-71
2023/03/20 00:28:40;;;;;;;35.45;28.23;;;11.90;99.90;;;;;;2075465;28;20083;-71
2023/03/20 00:29:41;;;;;;;33.47;28.05;;;12.00;99.90;;;;;;2075985;28;20034;-71
2023/03/20 00:30:41;;;;;;;34.50;26.80;;;11.90;99.90;;;;;;2075373;28;20143;-71
2023/03/20 00:31:42;;;;;;;34.67;28.58;;;11.90;99.90;;;;;;2073993;28;20026;-71
2023/03/20 00:32:43;;;;;;;33.33;27.63;;;11.90;99.90;;;;;;2076709;28;20236;-71
2023/03/20 00:33:44;;;;;;;32.33;28.58;;;11.90;99.90;;;;;;2077483;28;20071;-71
2023/03/20 00:34:44;;;;;;;28.25;24.77;;;11.90;99.90;;;;;;2075652;28;20029;-72
2023/03/20 00:35:45;;;;;;;30.30;27.00;;;11.90;99.90;;;;;;2075888;28;20041;-71
2023/03/20 00:36:46;;;;;;;32.40;27.60;;;11.90;99.90;;;;;;2077359;28;20068;-71
2023/03/20 00:37:47;;;;;;;31.63;28.02;;;11.90;99.90;;;;;;2068856;28;20056;-71
2023/03/20 00:38:48;;;;;;;31.48;26.20;;;11.90;99.90;;;;;;2069951;28;20057;-71
2023/03/20 00:39:49;;;;;;;31.00;27.17;;;11.90;99.90;;;;;;2076029;28;20037;-72
2023/03/20 00:40:50;;;;;;;31.60;26.83;;;11.80;99.90;;;;;;2073934;28;20052;-71
2023/03/20 00:42:00;;;;;;;31.48;25.67;;;11.80;99.90;;;;;;2074207;28;20117;-71
2023/03/20 00:43:03;;;;;;;32.95;26.95;;;11.80;99.90;;;;;;2072745;28;20117;-72
2023/03/20 00:44:26;;;;;;;31.80;27.65;;;11.70;99.90;;;;;;2075572;28;20481;-72
2023/03/20 00:45:29;;;;;;;33.15;26.83;;;11.70;99.90;;;;;;2073749;28;20099;-71
2023/03/20 00:46:34;;;;;;;28.80;25.73;;;11.70;99.90;;;;;;2071578;28;20113;-71
2023/03/20 00:47:37;;;;;;;31.23;27.00;;;11.70;99.90;;;;;;2074469;28;20048;-72
2023/03/20 00:48:39;;;;;;;33.33;26.67;;;11.70;99.90;;;;;;2078545;28;20057;-72
2023/03/20 00:49:40;;;;;;;29.17;25.98;;;11.70;99.90;;;;;;2078278;28;20672;-71
2023/03/20 00:50:40;;;;;;;30.23;25.52;;;11.70;99.90;;;;;;2074032;28;20068;-71
2023/03/20 00:51:41;;;;;;;29.13;25.98;;;11.70;99.90;;;;;;2073381;28;20075;-71
2023/03/20 00:52:43;;;;;;;28.10;25.15;;;11.70;99.90;;;;;;2075072;28;20062;-71
2023/03/20 00:53:44;;;;;;;28.85;24.63;;;11.60;99.90;;;;;;2072420;28;20029;-72
2023/03/20 00:54:44;;;;;;;28.73;25.58;;;11.60;99.90;;;;;;2073510;28;20156;-71
2023/03/20 00:55:45;;;;;;;29.83;23.98;;;11.60;99.90;;;;;;2075047;28;20063;-72
2023/03/20 00:56:59;;;;;;;27.38;24.45;;;11.60;99.90;;;;;;2075455;28;20049;-71
2023/03/20 00:58:01;;;;;;;31.77;25.27;;;11.70;99.90;;;;;;2074375;28;20033;-71
2023/03/20 00:59:03;;;;;;;28.75;25.63;;;11.60;99.90;;;;;;2073189;28;20033;-72
2023/03/20 01:00:09;;;;;;;29.77;24.17;;;11.60;99.90;;;;;;2072315;28;20032;-71
2023/03/20 01:01:10;;;;;;;30.48;25.95;;;11.70;99.90;;;;;;2076603;28;20025;-71
2023/03/20 01:02:11;;;;;;;28.10;24.95;;;11.60;99.90;;;;;;2075702;28;20017;-71
2023/03/20 01:03:23;;;;;;;27.83;23.98;;;11.60;99.90;;;;;;2074597;28;20022;-71
2023/03/20 01:04:30;;;;;;;28.10;24.65;;;11.60;99.90;;;;;;2074370;28;20179;-72
2023/03/20 01:05:30;;;;;;;29.08;25.77;;;11.60;99.90;;;;;;2079673;28;20048;-71
2023/03/20 01:06:31;;;;;;;27.92;24.95;;;11.60;99.90;;;;;;2072379;28;20061;-71
2023/03/20 01:07:32;;;;;;;28.70;25.65;;;11.60;99.90;;;;;;2076311;28;20025;-72
2023/03/20 01:08:33;;;;;;;30.52;24.30;;;11.60;99.90;;;;;;2074367;28;20029;-72
2023/03/20 01:09:33;;;;;;;29.17;23.83;;;11.60;99.90;;;;;;2074447;28;20025;-71
2023/03/20 01:10:34;;;;;;;28.83;23.92;;;11.60;99.90;;;;;;2072415;28;20104;-71
2023/03/20 01:11:35;;;;;;;26.98;24.05;;;11.60;99.90;;;;;;2075105;28;20029;-71
2023/03/20 01:12:38;;;;;;;29.33;24.27;;;11.60;99.90;;;;;;2074537;28;20026;-71
2023/03/20 01:13:40;;;;;;;27.08;23.95;;;11.60;99.90;;;;;;2075616;28;20033;-71
2023/03/20 01:14:41;;;;;;;26.80;23.88;;;11.60;99.90;;;;;;2075401;28;20107;-71
2023/03/20 01:15:43;;;;;;;26.90;24.00;;;11.60;99.90;;;;;;2074529;28;20354;-71
2023/03/20 01:16:44;;;;;;;27.35;24.35;;;11.60;99.90;;;;;;2074262;28;20036;-72
2023/03/20 01:17:45;;;;;;;26.77;23.55;;;11.60;99.90;;;;;;2073873;28;20021;-71
2023/03/20 01:18:46;;;;;;;30.38;25.55;;;11.60;99.90;;;;;;2074884;28;20026;-71
2023/03/20 01:19:47;;;;;;;28.13;25.17;;;11.60;99.90;;;;;;2074749;28;20029;-72
2023/03/20 01:20:48;;;;;;;30.17;25.50;;;11.60;99.90;;;;;;2077516;28;20800;-71
2023/03/20 01:21:49;;;;;;;28.83;25.73;;;11.60;99.90;;;;;;2078908;28;20504;-71
2023/03/20 01:22:50;;;;;;;28.80;25.73;;;11.50;99.90;;;;;;2080052;28;20140;-71
2023/03/20 01:23:50;;;;;;;31.27;26.60;;;11.50;99.90;;;;;;2082811;28;20025;-72
2023/03/20 01:24:51;;;;;;;30.65;26.50;;;11.50;99.90;;;;;;2075412;28;21034;-72
2023/03/20 01:25:51;;;;;;;29.63;26.20;;;11.50;99.90;;;;;;2068115;28;20053;-71
2023/03/20 01:26:53;;;;;;;30.38;27.17;;;11.50;99.90;;;;;;2080322;28;20028;-71
2023/03/20 01:27:54;;;;;;;31.50;27.80;;;11.50;99.90;;;;;;2075355;28;20032;-71
2023/03/20 01:28:55;;;;;;;31.27;27.08;;;11.50;99.90;;;;;;2074337;28;20128;-71
2023/03/20 01:29:55;;;;;;;31.05;27.42;;;11.50;99.90;;;;;;2077810;28;20030;-71
2023/03/20 01:30:56;;;;;;;30.63;26.75;;;11.50;99.90;;;;;;2068567;28;20057;-72
2023/03/20 01:31:56;;;;;;;32.13;27.05;;;11.50;99.90;;;;;;2077801;28;20596;-71
2023/03/20 01:32:58;;;;;;;29.38;26.23;;;11.50;99.90;;;;;;2077485;28;20049;-72
2023/03/20 01:33:59;;;;;;;29.75;26.48;;;11.50;99.90;;;;;;2076784;28;20160;-71
2023/03/20 01:34:59;;;;;;;31.80;27.35;;;11.50;99.90;;;;;;2079046;28;20025;-72
2023/03/20 01:36:00;;;;;;;33.60;29.17;;;11.50;99.90;;;;;;2079323;28;20432;-71
2023/03/20 01:37:01;;;;;;;31.13;27.48;;;11.50;99.90;;;;;;2074362;28;20401;-71
2023/03/20 01:38:01;;;;;;;33.92;28.63;;;11.50;99.90;;;;;;2075516;28;20513;-72
2023/03/20 01:39:02;;;;;;;34.47;28.48;;;11.50;99.90;;;;;;2075973;28;20034;-72
2023/03/20 01:40:03;;;;;;;33.22;27.98;;;11.50;99.90;;;;;;2075213;28;20014;-72
2023/03/20 01:41:13;;;;;;;33.97;27.48;;;11.40;99.90;;;;;;2074946;28;20061;-71
2023/03/20 01:42:15;;;;;;;33.47;27.67;;;11.40;99.90;;;;;;2076326;28;20068;-71
2023/03/20 01:43:19;;;;;;;33.50;28.13;;;11.40;99.90;;;;;;2074383;28;20025;-71
2023/03/20 01:44:27;;;;;;;28.58;25.38;;;11.40;99.90;;;;;;2075402;28;20079;-71
2023/03/20 01:45:34;;;;;;;26.15;23.35;;;11.40;99.90;;;;;;2075375;28;20449;-71
2023/03/20 01:46:37;;;;;;;26.02;23.30;;;11.40;99.90;;;;;;2074810;28;20097;-71
2023/03/20 01:47:38;;;;;;;25.73;22.92;;;11.40;99.90;;;;;;2075731;28;20525;-71
2023/03/20 01:49:27;;;;;;;26.40;23.60;;;11.50;99.90;;;;;;2083682;28;20354;-71
2023/03/20 01:50:30;;;;;;;24.27;21.67;;;11.40;99.90;;;;;;2069233;28;20048;-72
2023/03/20 01:51:31;;;;;;;25.40;22.73;;;11.40;99.90;;;;;;2071038;28;20269;-72
2023/03/20 01:52:32;;;;;;;25.17;22.48;;;11.40;99.90;;;;;;2073547;28;20113;-71
2023/03/20 01:53:33;;;;;;;25.85;23.13;;;11.40;99.90;;;;;;2078414;28;20140;-71
2023/03/20 01:54:36;;;;;;;28.45;24.90;;;11.40;99.90;;;;;;2078940;28;20523;-72
2023/03/20 01:55:39;;;;;;;26.33;23.00;;;11.40;99.90;;;;;;2076448;28;20459;-71
2023/03/20 01:56:45;;;;;;;24.98;22.45;;;11.40;99.90;;;;;;2074926;28;20037;-71
2023/03/20 01:57:46;;;;;;;26.25;23.48;;;11.40;99.90;;;;;;2075125;28;20033;-72
2023/03/20 01:58:59;;;;;;;26.00;23.13;;;11.40;99.90;;;;;;2077235;28;20084;-72
2023/03/20 02:00:05;;;;;;;25.05;22.08;;;11.40;99.90;;;;;;2075765;28;20061;-71
2023/03/20 02:01:10;;;;;;;26.33;23.52;;;11.40;99.90;;;;;;2074166;28;20523;-71
2023/03/20 02:02:18;;;;;;;24.30;21.77;;;11.40;99.90;;;;;;2080559;28;20056;-72
2023/03/20 02:03:20;;;;;;;23.92;21.42;;;11.40;99.90;;;;;;2078332;28;20037;-72
2023/03/20 02:04:27;;;;;;;25.70;21.85;;;11.40;99.90;;;;;;2075200;28;20036;-71
2023/03/20 02:05:27;;;;;;;25.23;22.15;;;11.40;99.90;;;;;;2078336;28;20018;-71
2023/03/20 02:06:28;;;;;;;25.40;22.15;;;11.40;99.90;;;;;;2078546;28;20064;-72
2023/03/20 02:07:30;;;;;;;27.35;23.38;;;11.30;99.90;;;;;;2075176;28;20048;-71
2023/03/20 02:08:39;;;;;;;28.80;23.27;;;11.40;99.90;;;;;;2075745;28;20018;-71
2023/03/20 02:09:40;;;;;;;26.27;22.75;;;11.40;99.90;;;;;;2074940;28;20025;-71
2023/03/20 02:10:42;;;;;;;31.73;24.85;;;11.40;99.90;;;;;;2074763;28;20018;-71
2023/03/20 02:11:44;;;;;;;27.05;22.45;;;11.40;99.90;;;;;;2074562;28;20029;-71
2023/03/20 02:12:46;;;;;;;28.75;24.63;;;11.40;99.90;;;;;;2075992;28;20017;-72
2023/03/20 02:13:47;;;;;;;31.75;25.75;;;11.40;99.90;;;;;;2076625;28;20112;-72
2023/03/20 02:14:48;;;;;;;28.85;23.30;;;11.40;99.90;;;;;;2076216;28;20092;-72
2023/03/20 02:16:03;;;;;;;28.70;23.10;;;11.40;99.90;;;;;;2076436;28;20027;-72
2023/03/20 02:17:07;;;;;;;29.10;23.23;;;11.40;99.90;;;;;;2074995;28;20096;-71
2023/03/20 02:18:08;;;;;;;28.20;23.30;;;11.40;99.90;;;;;;2076423;28;20022;-71
2023/03/20 02:19:24;;;;;;;28.05;23.98;;;11.40;99.90;;;;;;2076070;28;20036;-71
2023/03/20 02:20:46;;;;;;;26.85;22.67;;;11.40;99.90;;;;;;2076159;28;20151;-71
2023/03/20 02:22:23;;;;;;;26.95;22.77;;;11.30;99.90;;;;;;2075031;28;20104;-71
2023/03/20 02:24:02;;;;;;;28.23;22.92;;;11.30;99.90;;;;;;2073972;28;20021;-71
2023/03/20 02:25:33;;;;;;;28.27;22.88;;;11.20;99.90;;;;;;2073489;28;20041;-71
2023/03/20 02:26:44;;;;;;;28.63;21.95;;;11.20;99.90;;;;;;2075145;28;20037;-71
2023/03/20 02:28:03;;;;;;;29.40;23.20;;;11.20;99.90;;;;;;2075421;28;20120;-71
2023/03/20 02:29:09;;;;;;;25.40;20.05;;;11.20;99.90;;;;;;2074946;28;20033;-72
2023/03/20 02:30:16;;;;;;;26.48;22.13;;;11.20;99.90;;;;;;2074878;28;20062;-72
2023/03/20 02:31:46;;;;;;;24.33;20.40;;;11.20;99.90;;;;;;2074366;28;20018;-71
2023/03/20 02:33:17;;;;;;;26.55;21.33;;;11.20;99.90;;;;;;2074132;28;20038;-71
2023/03/20 02:34:28;;;;;;;26.50;20.48;;;11.20;99.90;;;;;;2076233;28;20080;-71
2023/03/20 02:35:50;;;;;;;25.40;19.45;;;11.10;99.90;;;;;;2074710;28;20013;-71
2023/03/20 02:37:00;;;;;;;22.92;18.40;;;11.20;99.90;;;;;;2077256;28;21232;-71
2023/03/20 02:38:26;;;;;;;23.33;18.67;;;11.10;99.90;;;;;;2075852;28;20068;-71
2023/03/20 02:39:59;;;;;;;20.83;17.08;;;11.10;99.90;;;;;;2075206;28;20033;-71
2023/03/20 02:41:24;;;;;;;20.25;16.42;;;11.10;99.90;;;;;;2077608;28;20477;-71
2023/03/20 02:42:43;;;;;;;18.70;16.13;;;11.10;99.90;;;;;;2075303;28;20030;-72
2023/03/20 02:43:47;;;;;;;19.95;17.17;;;11.10;99.90;;;;;;2074921;28;20033;-71
2023/03/20 02:45:09;;;;;;;18.50;15.32;;;11.10;99.90;;;;;;2076592;28;20247;-71
2023/03/20 02:46:34;;;;;;;18.85;14.98;;;11.10;99.90;;;;;;2079794;28;20085;-71
2023/03/20 02:48:09;;;;;;;14.55;12.30;;;11.00;99.90;;;;;;2080353;28;20048;-71
2023/03/20 02:49:27;;;;;;;14.48;12.23;;;11.00;99.90;;;;;;2078532;28;20065;-71
2023/03/20 02:51:02;;;;;;;11.20;10.07;;;11.00;99.90;;;;;;2077059;28;20025;-71
2023/03/20 02:52:34;;;;;;;13.68;9.15;;;11.00;99.90;;;;;;2075846;28;20552;-72
2023/03/20 02:53:51;;;;;;;8.05;7.25;;;10.80;99.90;;;;;;2077276;28;20516;-71
2023/03/20 02:55:10;;;;;;;7.68;6.97;;;10.80;99.90;;;;;;2074686;28;20033;-71
2023/03/20 02:56:19;;;;;;;8.40;7.22;;;10.80;99.90;;;;;;2075274;28;20057;-71
2023/03/20 02:57:30;;;;;;;7.05;6.35;;;10.80;99.90;;;;;;2075407;28;20424;-71
2023/03/20 02:58:51;;;;;;;10.23;7.00;;;10.80;99.90;;;;;;2075249;28;20038;-71
2023/03/20 02:59:58;;;;;;;7.35;6.50;;;10.70;99.90;;;;;;2074450;28;20032;-71
2023/03/20 03:01:14;;;;;;;7.78;6.80;;;10.70;99.90;;;;;;2076223;28;20056;-71
2023/03/20 03:02:25;;;;;;;8.15;7.13;;;10.70;99.90;;;;;;2074410;28;20389;-71
2023/03/20 03:03:42;;;;;;;8.50;6.50;;;10.70;99.90;;;;;;2074557;28;20024;-71
2023/03/20 03:04:51;;;;;;;7.20;6.57;;;10.70;99.90;;;;;;2075294;28;20104;-71
2023/03/20 03:06:01;;;;;;;8.13;7.32;;;10.70;99.90;;;;;;2074774;28;20029;-71
2023/03/20 03:07:04;;;;;;;8.27;6.07;;;10.80;99.90;;;;;;2075098;28;20025;-71
2023/03/20 03:08:07;;;;;;;6.50;5.90;;;10.70;99.90;;;;;;2073708;28;20081;-72
2023/03/20 03:09:31;;;;;;;6.97;6.28;;;10.80;99.90;;;;;;2075540;28;20095;-71
2023/03/20 03:10:36;;;;;;;7.43;6.20;;;10.80;99.90;;;;;;2075003;28;20029;-71
2023/03/20 03:11:42;;;;;;;6.88;6.18;;;10.80;99.90;;;;;;2075301;28;20033;-72
2023/03/20 03:12:47;;;;;;;6.65;6.05;;;10.80;99.90;;;;;;2073719;28;20033;-71
2023/03/20 03:13:51;;;;;;;6.78;6.07;;;10.80;99.90;;;;;;2075503;28;20029;-71
2023/03/20 03:14:56;;;;;;;8.35;6.30;;;10.80;99.90;;;;;;2077308;28;20144;-71
2023/03/20 03:16:03;;;;;;;7.20;6.50;;;10.80;99.90;;;;;;2078426;28;20028;-71
2023/03/20 03:17:07;;;;;;;6.47;5.88;;;10.80;99.90;;;;;;2074420;28;20030;-71
2023/03/20 03:18:14;;;;;;;6.93;6.30;;;10.80;99.90;;;;;;2074509;28;20026;-71
2023/03/20 03:19:19;;;;;;;6.43;5.82;;;10.80;99.90;;;;;;2076166;28;20025;-71
2023/03/20 03:20:28;;;;;;;6.50;5.88;;;10.90;99.90;;;;;;2075674;28;20032;-71
2023/03/20 03:21:30;;;;;;;7.70;6.00;;;10.80;99.90;;;;;;2074314;28;20050;-71
2023/03/20 03:22:33;;;;;;;6.47;5.85;;;10.90;99.90;;;;;;2075337;28;20033;-71
2023/03/20 03:23:36;;;;;;;7.43;6.10;;;10.80;99.90;;;;;;2073958;28;20065;-71
2023/03/20 03:24:42;;;;;;;6.88;6.05;;;10.90;99.90;;;;;;2074992;28;20030;-71
2023/03/20 03:25:43;;;;;;;7.05;6.35;;;10.80;99.90;;;;;;2075518;28;20098;-71
2023/03/20 03:26:44;;;;;;;6.57;5.97;;;10.80;99.90;;;;;;2074420;28;20022;-71
2023/03/20 03:27:48;;;;;;;6.63;5.88;;;10.80;99.90;;;;;;2074604;28;20144;-71
2023/03/20 03:28:53;;;;;;;6.75;6.07;;;10.80;99.90;;;;;;2074145;28;20666;-72
2023/03/20 03:30:01;;;;;;;6.28;5.63;;;10.80;99.90;;;;;;2073737;28;20048;-72
2023/03/20 03:31:05;;;;;;;6.72;5.88;;;10.80;99.90;;;;;;2074073;28;20029;-71
2023/03/20 03:32:20;;;;;;;6.43;5.68;;;10.80;99.90;;;;;;2074565;28;20025;-71
2023/03/20 03:33:28;;;;;;;7.10;6.13;;;10.90;99.90;;;;;;2073478;28;20030;-71
2023/03/20 03:34:30;;;;;;;6.22;5.57;;;10.90;99.90;;;;;;2074187;28;20037;-71
2023/03/20 03:35:30;;;;;;;6.20;5.60;;;10.90;99.90;;;;;;2075043;28;20017;-72
2023/03/20 03:36:40;;;;;;;6.28;5.68;;;10.90;99.90;;;;;;2078281;28;20904;-72
2023/03/20 03:37:54;;;;;;;7.03;6.30;;;10.90;99.90;;;;;;2077612;28;20037;-71
2023/03/20 03:39:21;;;;;;;6.55;5.95;;;10.90;99.90;;;;;;2076500;28;20030;-71
2023/03/20 03:40:45;;;;;;;6.53;5.80;;;10.90;99.90;;;;;;2072513;28;20056;-71
2023/03/20 03:41:55;;;;;;;6.47;5.72;;;10.80;99.90;;;;;;2073591;28;20128;-71
2023/03/20 03:43:02;;;;;;;6.15;5.53;;;10.80;99.90;;;;;;2076763;28;20381;-72
2023/03/20 03:44:07;;;;;;;5.82;5.20;;;10.90;99.90;;;;;;2077251;28;20162;-71
2023/03/20 03:45:16;;;;;;;6.00;5.45;;;10.80;99.90;;;;;;2078204;28;20065;-71
2023/03/20 03:46:26;;;;;;;9.00;5.43;;;10.90;99.90;;;;;;2076673;28;20017;-71
2023/03/20 03:47:54;;;;;;;6.00;5.35;;;10.90;99.90;;;;;;2075722;28;20022;-72
2023/03/20 03:48:57;;;;;;;5.93;5.32;;;10.80;99.90;;;;;;2081154;28;20033;-72
2023/03/20 03:50:03;;;;;;;7.20;5.22;;;10.80;99.90;;;;;;2081089;28;20029;-72
2023/03/20 03:51:25;;;;;;;5.97;4.72;;;10.80;99.90;;;;;;2074029;28;20104;-71
2023/03/20 03:52:30;;;;;;;5.05;4.63;;;10.80;99.90;;;;;;2074144;28;20071;-72
2023/03/20 03:53:36;;;;;;;5.75;4.82;;;10.90;99.90;;;;;;2073762;28;20014;-71
2023/03/20 03:54:44;;;;;;;6.18;4.78;;;10.80;99.90;;;;;;2073867;28;20030;-71
2023/03/20 03:55:49;;;;;;;5.85;4.93;;;10.80;99.90;;;;;;2073267;28;20417;-71
2023/03/20 03:56:52;;;;;;;4.97;4.57;;;10.80;99.90;;;;;;2073385;28;20029;-71
2023/03/20 03:58:02;;;;;;;6.00;4.80;;;10.80;99.90;;;;;;2072697;28;20029;-71
2023/03/20 03:59:09;;;;;;;5.82;4.90;;;10.90;99.90;;;;;;2072578;28;20863;-71
2023/03/20 04:00:14;;;;;;;6.10;4.53;;;10.80;99.90;;;;;;2075180;28;20120;-72
2023/03/20 04:01:16;;;;;;;4.78;4.38;;;10.80;99.90;;;;;;2076920;28;20017;-71
2023/03/20 04:02:20;;;;;;;5.07;4.45;;;10.90;99.90;;;;;;2075789;28;20531;-71
2023/03/20 04:03:27;;;;;;;5.45;4.90;;;10.80;99.90;;;;;;2075500;28;20032;-71
2023/03/20 04:04:30;;;;;;;6.53;5.05;;;10.80;99.90;;;;;;2074494;28;20033;-71
2023/03/20 04:05:33;;;;;;;4.80;4.40;;;10.80;99.90;;;;;;2073645;28;20104;-72
2023/03/20 04:06:34;;;;;;;6.40;4.72;;;10.80;99.90;;;;;;2073842;28;20037;-71
2023/03/20 04:07:35;;;;;;;5.60;4.82;;;10.80;99.90;;;;;;2074537;28;20065;-72
2023/03/20 04:08:36;;;;;;;4.72;4.22;;;10.70;99.90;;;;;;2074340;28;20037;-71
2023/03/20 04:09:36;;;;;;;7.03;4.70;;;10.80;99.90;;;;;;2077892;28;20034;-72
2023/03/20 04:10:37;;;;;;;4.75;4.35;;;10.80;99.90;;;;;;2077061;28;20018;-71
2023/03/20 04:11:38;;;;;;;5.35;4.65;;;10.80;99.90;;;;;;2074174;28;20033;-71
2023/03/20 04:12:41;;;;;;;4.80;4.20;;;10.80;99.90;;;;;;2075098;28;20104;-71
2023/03/20 04:13:42;;;;;;;5.20;4.40;;;10.80;99.90;;;;;;2073992;28;20034;-71
2023/03/20 04:14:42;;;;;;;4.57;4.18;;;10.80;99.90;;;;;;2075404;28;20105;-71
2023/03/20 04:15:43;;;;;;;5.25;4.78;;;10.80;99.90;;;;;;2075324;28;20025;-71
2023/03/20 04:16:44;;;;;;;4.93;4.43;;;10.80;99.90;;;;;;2076562;28;20029;-71
2023/03/20 04:17:44;;;;;;;5.32;4.85;;;10.80;99.90;;;;;;2073333;28;20401;-71
2023/03/20 04:18:46;;;;;;;4.97;4.40;;;10.80;99.90;;;;;;2075089;28;20071;-71
2023/03/20 04:19:46;;;;;;;5.50;4.63;;;10.70;99.90;;;;;;2076614;28;20029;-72
2023/03/20 04:20:47;;;;;;;5.38;4.88;;;10.70;99.90;;;;;;2077739;28;20505;-71
2023/03/20 04:21:48;;;;;;;5.45;4.82;;;10.70;99.90;;;;;;2074747;28;20026;-71
2023/03/20 04:22:48;;;;;;;5.88;4.90;;;10.70;99.90;;;;;;2074740;28;20064;-71
2023/03/20 04:23:49;;;;;;;6.40;5.25;;;10.70;99.90;;;;;;2073186;28;20022;-71
2023/03/20 04:24:50;;;;;;;8.07;5.72;;;10.70;99.90;;;;;;2073567;28;20026;-71
2023/03/20 04:25:50;;;;;;;6.20;5.60;;;10.70;99.90;;;;;;2073263;28;20563;-72
2023/03/20 04:26:51;;;;;;;5.75;5.15;;;10.70;99.90;;;;;;2074128;28;20830;-72
2023/03/20 04:27:51;;;;;;;6.57;5.93;;;10.70;99.90;;;;;;2074395;28;20057;-71
2023/03/20 04:28:52;;;;;;;6.40;5.80;;;10.70;99.90;;;;;;2072714;28;20026;-72
2023/03/20 04:29:52;;;;;;;7.57;6.68;;;10.70;99.90;;;;;;2072428;28;20488;-71
2023/03/20 04:30:55;;;;;;;9.45;6.50;;;10.70;99.90;;;;;;2074104;28;20092;-71
2023/03/20 04:31:55;;;;;;;6.70;6.10;;;10.70;99.90;;;;;;2074618;28;20034;-71
2023/03/20 04:32:56;;;;;;;7.60;6.80;;;10.70;99.90;;;;;;2073886;28;20050;-72
2023/03/20 04:33:57;;;;;;;9.45;7.60;;;10.70;99.90;;;;;;2075497;28;20037;-71
2023/03/20 04:34:58;;;;;;;7.57;6.07;;;10.70;99.90;;;;;;2073705;28;20869;-72
2023/03/20 04:35:58;;;;;;;9.68;7.10;;;10.70;99.90;;;;;;2072555;28;20018;-71
2023/03/20 04:37:00;;;;;;;11.98;7.70;;;10.70;99.90;;;;;;2073512;28;20036;-71
2023/03/20 04:38:00;;;;;;;8.35;7.50;;;10.70;99.90;;;;;;2073586;28;20025;-71
2023/03/20 04:39:01;;;;;;;9.95;8.02;;;10.70;99.90;;;;;;2074729;28;20068;-72
2023/03/20 04:40:02;;;;;;;11.50;9.68;;;10.70;99.90;;;;;;2073844;28;20030;-71
2023/03/20 04:41:03;;;;;;;14.40;11.18;;;10.70;99.90;;;;;;2074461;28;20079;-71
2023/03/20 04:42:04;;;;;;;13.73;11.35;;;10.70;99.90;;;;;;2073365;28;20030;-72
2023/03/20 04:43:05;;;;;;;12.70;11.27;;;10.70;99.90;;;;;;2074668;28;20026;-71
2023/03/20 04:44:06;;;;;;;14.73;12.52;;;10.70;99.90;;;;;;2075057;28;20025;-71
2023/03/20 04:45:07;;;;;;;14.05;12.00;;;10.70;99.90;;;;;;2076112;28;20119;-71
2023/03/20 04:46:08;;;;;;;16.88;12.57;;;10.70;99.90;;;;;;2073961;28;20100;-71
2023/03/20 04:47:08;;;;;;;13.73;12.20;;;10.70;99.90;;;;;;2075275;28;20037;-71
2023/03/20 04:48:09;;;;;;;14.77;12.15;;;10.70;99.90;;;;;;2073444;28;20068;-71
2023/03/20 04:49:10;;;;;;;16.30;12.43;;;10.70;99.90;;;;;;2077075;28;20397;-71
2023/03/20 04:50:12;;;;;;;17.50;12.90;;;10.60;99.90;;;;;;2077568;28;20029;-71
2023/03/20 04:51:13;;;;;;;14.43;12.65;;;10.60;99.90;;;;;;2073318;28;20056;-71
2023/03/20 04:52:13;;;;;;;16.92;13.90;;;10.60;99.90;;;;;;2067434;28;20064;-71
2023/03/20 04:53:15;;;;;;;13.48;12.05;;;10.60;99.90;;;;;;2074753;28;20028;-72
2023/03/20 04:54:15;;;;;;;13.55;12.15;;;10.60;99.90;;;;;;2073057;28;20018;-71
2023/03/20 04:55:16;;;;;;;14.90;12.50;;;10.60;99.90;;;;;;2079364;28;20548;-71
2023/03/20 04:56:17;;;;;;;14.52;12.93;;;10.60;99.90;;;;;;2078525;28;20092;-71
2023/03/20 04:57:17;;;;;;;15.77;13.30;;;10.60;99.90;;;;;;2075707;28;20033;-71
2023/03/20 04:58:18;;;;;;;17.65;14.23;;;10.60;99.90;;;;;;2075231;28;20041;-71
2023/03/20 04:59:19;;;;;;;14.90;11.55;;;10.60;99.90;;;;;;2075982;28;20028;-71
2023/03/20 05:00:20;;;;;;;15.65;12.85;;;10.60;99.90;;;;;;2075954;28;20044;-71
2023/03/20 05:01:22;;;;;;;16.70;13.88;;;10.60;99.90;;;;;;2073515;28;20481;-71
2023/03/20 05:02:22;;;;;;;16.70;13.73;;;10.60;99.90;;;;;;2074606;28;20018;-72
2023/03/20 05:03:23;;;;;;;15.25;12.30;;;10.60;99.90;;;;;;2076270;28;20022;-71
2023/03/20 05:04:23;;;;;;;16.60;14.48;;;10.60;99.90;;;;;;2075748;28;20018;-71
2023/03/20 05:05:24;;;;;;;14.95;13.35;;;10.60;99.90;;;;;;2073240;28;20500;-71
2023/03/20 05:06:26;;;;;;;15.20;13.05;;;10.60;99.90;;;;;;2073839;28;20025;-71
2023/03/20 05:07:27;;;;;;;16.55;14.70;;;10.60;99.90;;;;;;2073587;28;20061;-71
2023/03/20 05:08:27;;;;;;;16.77;13.68;;;10.60;99.90;;;;;;2076464;28;20045;-72
2023/03/20 05:09:28;;;;;;;19.30;15.18;;;10.60;99.90;;;;;;2075838;28;20068;-71
2023/03/20 05:10:28;;;;;;;18.58;14.80;;;10.50;99.90;;;;;;2076308;28;20018;-71
2023/03/20 05:11:29;;;;;;;14.52;12.75;;;10.50;99.90;;;;;;2078122;28;20854;-71
2023/03/20 05:12:29;;;;;;;13.98;11.90;;;10.50;99.90;;;;;;2074084;28;20025;-72
2023/03/20 05:13:30;;;;;;;17.95;15.13;;;10.50;99.90;;;;;;2074714;28;20556;-71
2023/03/20 05:14:30;;;;;;;18.85;15.68;;;10.50;99.90;;;;;;2074681;28;20029;-71
2023/03/20 05:15:31;;;;;;;16.92;14.50;;;10.50;99.90;;;;;;2073893;28;20057;-71
2023/03/20 05:16:33;;;;;;;18.52;16.23;;;10.50;99.90;;;;;;2074501;28;20026;-71
2023/03/20 05:17:33;;;;;;;17.75;14.70;;;10.50;99.90;;;;;;2073261;28;20022;-71
2023/03/20 05:18:34;;;;;;;20.92;15.75;;;10.50;99.90;;;;;;2076375;28;20017;-72
2023/03/20 05:19:35;;;;;;;17.00;13.57;;;10.50;99.90;;;;;;2076267;28;20100;-71
2023/03/20 05:20:36;;;;;;;19.20;16.38;;;10.50;99.90;;;;;;2073778;28;20035;-71
2023/03/20 05:21:36;;;;;;;23.23;16.98;;;10.50;99.90;;;;;;2073730;28;20481;-72
2023/03/20 05:22:37;;;;;;;16.88;15.05;;;10.50;99.90;;;;;;2075905;28;20025;-72
2023/03/20 05:23:37;;;;;;;20.83;16.83;;;10.50;99.90;;;;;;2077241;28;20038;-71
2023/03/20 05:24:38;;;;;;;23.05;18.25;;;10.50;99.90;;;;;;2074034;28;20636;-71
2023/03/20 05:25:39;;;;;;;22.52;17.75;;;10.40;99.90;;;;;;2075688;28;20040;-72
2023/03/20 05:26:39;;;;;;;20.30;17.13;;;10.40;99.90;;;;;;2074714;28;20104;-71
2023/03/20 05:27:40;;;;;;;22.30;18.05;;;10.40;99.90;;;;;;2074424;28;20040;-71
2023/03/20 05:28:41;;;;;;;25.63;18.65;;;10.40;99.90;;;;;;2073839;28;20441;-72
2023/03/20 05:29:41;;;;;;;22.17;18.20;;;10.40;99.90;;;;;;2072547;28;20024;-71
2023/03/20 05:30:42;;;;;;;23.25;19.73;;;10.40;99.90;;;;;;2075238;28;20038;-71
2023/03/20 05:31:42;;;;;;;25.38;19.08;;;10.40;99.90;;;;;;2073623;28;20362;-72
2023/03/20 05:32:43;;;;;;;27.33;20.25;;;10.40;99.90;;;;;;2073813;28;20030;-71